createdAt,value
2019-04-04T00:00:51.047Z,12.90
2019-04-04T00:03:21.249Z,12.80
2019-04-04T00:05:51.247Z,12.80
2019-04-04T00:08:20.624Z,12.80
2019-04-04T00:10:50.186Z,12.80
2019-04-04T00:13:19.558Z,12.90
2019-04-04T00:15:49.025Z,13.00
2019-04-04T00:18:18.407Z,13.00
2019-04-04T00:20:47.789Z,13.00
2019-04-04T00:23:17.171Z,12.90
2019-04-04T00:25:47.376Z,12.80
2019-04-04T00:28:16.769Z,12.80
2019-04-04T00:30:48.232Z,12.80
2019-04-04T00:33:18.360Z,12.70
2019-04-04T00:35:47.836Z,12.80
2019-04-04T00:38:17.203Z,12.80
2019-04-04T00:40:46.588Z,12.80
2019-04-04T00:43:15.967Z,12.70
2019-04-04T00:45:45.419Z,12.70
2019-04-04T00:48:14.799Z,12.70
2019-04-04T00:50:44.171Z,12.70
2019-04-04T00:53:13.627Z,12.60
2019-04-04T00:55:43.026Z,12.60
2019-04-04T00:58:12.407Z,12.60
2019-04-04T01:00:41.782Z,12.60
2019-04-04T01:03:11.272Z,12.60
2019-04-04T01:05:40.641Z,12.50
2019-04-04T01:08:10.027Z,12.60
2019-04-04T01:10:39.390Z,12.60
2019-04-04T01:13:08.782Z,12.60
2019-04-04T01:15:38.184Z,12.70
2019-04-04T01:18:07.558Z,12.70
2019-04-04T01:20:36.954Z,12.80
2019-04-04T01:23:06.345Z,12.70
2019-04-04T01:25:35.736Z,12.60
2019-04-04T01:28:07.800Z,12.60
2019-04-04T01:30:36.260Z,12.50
2019-04-04T01:33:05.646Z,12.50
2019-04-04T01:35:36.115Z,12.60
2019-04-04T01:38:05.751Z,12.60
2019-04-04T01:40:35.119Z,12.60
2019-04-04T01:43:04.536Z,12.60
2019-04-04T01:45:33.914Z,12.60
2019-04-04T01:48:03.399Z,12.60
2019-04-04T01:50:32.844Z,12.60
2019-04-04T01:53:02.227Z,12.60
2019-04-04T01:55:32.981Z,12.50
2019-04-04T01:58:02.689Z,12.50
2019-04-04T02:00:32.070Z,12.60
2019-04-04T02:03:01.529Z,12.60
2019-04-04T02:05:31.087Z,12.50
2019-04-04T02:08:00.923Z,12.50
2019-04-04T02:10:31.098Z,12.50
2019-04-04T02:13:00.486Z,12.50
2019-04-04T02:15:29.880Z,12.50
2019-04-04T02:17:59.271Z,12.50
2019-04-04T02:20:28.648Z,12.40
2019-04-04T02:23:01.190Z,12.30
2019-04-04T02:25:30.186Z,12.20
2019-04-04T02:27:59.647Z,12.30
2019-04-04T02:30:29.521Z,12.20
2019-04-04T02:33:00.520Z,12.30
2019-04-04T02:35:31.133Z,12.20
2019-04-04T02:38:00.641Z,12.10
2019-04-04T02:41:17.516Z,12.20
2019-04-04T02:43:47.936Z,12.20
2019-04-04T02:46:17.421Z,12.30
2019-04-04T02:48:49.256Z,12.40
2019-04-04T02:51:21.926Z,12.40
2019-04-04T02:53:53.177Z,12.40
2019-04-04T02:56:22.826Z,12.40
2019-04-04T02:58:52.245Z,12.40
2019-04-04T03:01:21.748Z,12.50
2019-04-04T03:03:51.279Z,12.50
2019-04-04T03:06:23.912Z,12.50
2019-04-04T03:08:51.800Z,12.40
2019-04-04T03:11:21.998Z,12.50
2019-04-04T03:13:52.364Z,12.40
2019-04-04T03:16:22.571Z,12.40
2019-04-04T03:18:52.124Z,12.40
2019-04-04T03:21:23.413Z,12.40
2019-04-04T03:23:52.583Z,12.50
2019-04-04T03:26:22.086Z,12.40
2019-04-04T03:28:53.006Z,12.50
2019-04-04T03:31:22.451Z,12.50
2019-04-04T03:33:51.947Z,12.40
2019-04-04T03:36:21.438Z,12.30
2019-04-04T03:38:50.812Z,12.20
2019-04-04T03:41:20.194Z,12.20
2019-04-04T03:43:49.586Z,12.30
2019-04-04T03:46:21.773Z,12.30
2019-04-04T03:48:51.230Z,12.30
2019-04-04T03:51:20.644Z,12.30
2019-04-04T03:53:51.787Z,12.40
2019-04-04T03:56:21.223Z,12.50
2019-04-04T03:58:50.606Z,12.50
2019-04-04T04:01:19.987Z,12.40
2019-04-04T04:03:49.446Z,12.40
2019-04-04T04:06:22.285Z,12.40
2019-04-04T04:08:54.659Z,12.50
2019-04-04T04:11:22.934Z,12.50
2019-04-04T04:13:52.338Z,12.50
2019-04-04T04:16:21.785Z,12.40
2019-04-04T04:18:53.961Z,12.30
2019-04-04T04:21:22.243Z,12.30
2019-04-04T04:23:56.170Z,12.30
2019-04-04T04:26:22.696Z,12.30
2019-04-04T04:28:53.337Z,12.30
2019-04-04T04:31:23.134Z,12.30
2019-04-04T04:33:52.544Z,12.40
2019-04-04T04:36:21.993Z,12.40
2019-04-04T04:38:51.445Z,12.20
2019-04-04T04:41:21.337Z,12.00
2019-04-04T04:43:50.892Z,11.90
2019-04-04T04:46:20.293Z,11.80
2019-04-04T04:48:49.739Z,11.80
2019-04-04T04:51:19.188Z,12.00
2019-04-04T04:53:50.591Z,12.00
2019-04-04T04:56:19.662Z,12.00
2019-04-04T04:58:49.032Z,12.00
2019-04-04T05:01:19.117Z,12.00
2019-04-04T05:03:50.718Z,11.90
2019-04-04T05:06:19.751Z,11.90
2019-04-04T05:08:49.132Z,11.90
2019-04-04T05:11:19.169Z,11.90
2019-04-04T05:13:49.179Z,12.00
2019-04-04T05:16:18.571Z,12.00
2019-04-04T05:18:48.294Z,11.90
2019-04-04T05:21:25.018Z,12.00
2019-04-04T05:23:48.853Z,12.10
2019-04-04T05:26:18.230Z,12.20
2019-04-04T05:28:47.706Z,12.30
2019-04-04T05:31:18.245Z,12.30
2019-04-04T05:33:48.227Z,12.30
2019-04-04T05:36:17.667Z,12.40
2019-04-04T05:38:47.353Z,12.30
2019-04-04T05:41:16.992Z,12.30
2019-04-04T05:43:46.455Z,12.40
2019-04-04T05:46:16.773Z,12.70
2019-04-04T05:48:46.923Z,12.80
2019-04-04T05:51:16.284Z,12.70
2019-04-04T05:53:45.770Z,12.50
2019-04-04T05:56:15.780Z,12.50
2019-04-04T05:58:45.349Z,12.60
2019-04-04T06:01:16.389Z,12.70
2019-04-04T06:03:47.819Z,12.90
2019-04-04T06:06:16.852Z,13.00
2019-04-04T06:08:46.339Z,13.10
2019-04-04T06:11:29.836Z,13.20
2019-04-04T06:13:59.682Z,13.20
2019-04-04T06:16:30.145Z,13.20
2019-04-04T06:18:59.619Z,13.20
2019-04-04T06:21:29.078Z,13.20
2019-04-04T06:23:58.547Z,13.20
2019-04-04T06:26:32.655Z,13.10
2019-04-04T06:29:05.458Z,13.10
2019-04-04T06:31:55.927Z,13.10
2019-04-04T06:34:25.450Z,13.10
2019-04-04T06:36:55.036Z,13.50
2019-04-04T06:39:26.282Z,13.40
2019-04-04T06:42:03.304Z,13.20
2019-04-04T06:44:36.458Z,13.20
2019-04-04T06:47:06.166Z,13.10
2019-04-04T06:49:42.086Z,13.10
2019-04-04T06:52:16.319Z,13.10
2019-04-04T06:54:49.345Z,13.00
2019-04-04T06:57:21.600Z,12.90
2019-04-04T06:59:51.389Z,12.80
2019-04-04T07:02:21.990Z,12.80
2019-04-04T07:04:52.384Z,12.80
2019-04-04T07:07:22.865Z,12.80
2019-04-04T07:09:52.272Z,12.80
2019-04-04T07:12:28.066Z,12.80
2019-04-04T07:14:52.739Z,12.90
2019-04-04T07:17:22.300Z,12.90
2019-04-04T07:19:51.683Z,12.90
2019-04-04T07:22:24.521Z,12.90
2019-04-04T07:24:52.159Z,13.00
2019-04-04T07:27:21.629Z,13.00
2019-04-04T07:29:51.004Z,13.00
2019-04-04T07:32:20.405Z,13.10
2019-04-04T07:34:49.816Z,13.10
2019-04-04T07:37:21.728Z,13.10
2019-04-04T07:39:50.730Z,13.10
2019-04-04T07:42:20.132Z,13.20
2019-04-04T07:44:49.575Z,13.20
2019-04-04T07:47:18.979Z,13.30
2019-04-04T07:49:48.501Z,13.30
2019-04-04T07:52:17.918Z,13.30
2019-04-04T07:54:47.366Z,13.30
2019-04-04T07:57:19.465Z,13.30
2019-04-04T07:59:49.094Z,13.40
2019-04-04T08:02:18.479Z,13.40
2019-04-04T08:04:47.857Z,13.40
2019-04-04T08:07:17.395Z,13.40
2019-04-04T08:09:46.943Z,13.40
2019-04-04T08:12:29.742Z,13.30
2019-04-04T08:14:59.317Z,13.30
2019-04-04T08:17:43.449Z,13.50
2019-04-04T08:20:13.991Z,13.50
2019-04-04T08:22:46.916Z,13.50
2019-04-04T08:25:22.568Z,13.60
2019-04-04T08:27:52.063Z,13.70
2019-04-04T08:30:21.462Z,13.90
2019-04-04T08:32:51.096Z,14.00
2019-04-04T08:35:20.707Z,14.00
2019-04-04T08:37:50.504Z,14.10
2019-04-04T08:40:22.087Z,14.10
2019-04-04T08:42:54.519Z,14.10
2019-04-04T08:45:25.734Z,14.10
2019-04-04T08:47:56.887Z,14.20
2019-04-04T08:50:26.429Z,14.20
2019-04-04T08:52:57.772Z,14.20
2019-04-04T08:55:27.213Z,14.20
2019-04-04T08:57:56.597Z,14.30
2019-04-04T09:00:28.068Z,14.40
2019-04-04T09:02:57.466Z,14.40
2019-04-04T09:05:26.915Z,14.50
2019-04-04T09:07:56.303Z,14.50
2019-04-04T09:10:25.688Z,14.50
2019-04-04T09:12:55.074Z,14.60
2019-04-04T09:15:24.544Z,14.60
2019-04-04T09:17:53.947Z,14.60
2019-04-04T09:20:23.413Z,14.70
2019-04-04T09:22:52.816Z,14.70
2019-04-04T09:25:22.204Z,14.80
2019-04-04T09:27:51.582Z,14.80
2019-04-04T09:30:22.302Z,14.90
2019-04-04T09:32:51.839Z,15.00
2019-04-04T09:35:21.728Z,15.00
2019-04-04T09:37:51.114Z,15.00
2019-04-04T09:40:20.648Z,15.10
2019-04-04T09:42:50.035Z,15.10
2019-04-04T09:45:20.476Z,15.10
2019-04-04T09:47:49.852Z,15.20
2019-04-04T09:50:19.411Z,15.40
2019-04-04T09:52:48.789Z,15.40
2019-04-04T09:55:18.198Z,15.50
2019-04-04T09:57:47.571Z,15.60
2019-04-04T10:00:21.134Z,15.70
2019-04-04T10:02:50.509Z,15.80
2019-04-04T10:05:19.975Z,15.80
2019-04-04T10:07:49.363Z,15.80
2019-04-04T10:10:19.017Z,15.90
2019-04-04T10:12:48.399Z,16.00
2019-04-04T10:15:19.206Z,15.90
2019-04-04T10:17:49.474Z,15.90
2019-04-04T10:20:19.127Z,15.90
2019-04-04T10:22:48.563Z,15.90
2019-04-04T10:25:18.067Z,15.80
2019-04-04T10:27:47.473Z,15.80
2019-04-04T10:30:17.185Z,15.80
2019-04-04T10:32:46.583Z,15.80
2019-04-04T10:35:15.987Z,15.80
2019-04-04T10:37:45.432Z,15.80
2019-04-04T10:40:15.303Z,15.90
2019-04-04T10:42:44.690Z,15.90
2019-04-04T10:45:14.625Z,16.00
2019-04-04T10:47:44.096Z,16.00
2019-04-04T10:50:14.024Z,16.10
2019-04-04T10:52:43.409Z,16.20
2019-04-04T10:55:13.213Z,16.10
2019-04-04T10:57:42.662Z,16.10
2019-04-04T11:00:12.488Z,16.10
2019-04-04T11:02:42.352Z,16.10
2019-04-04T11:05:20.002Z,16.20
2019-04-04T11:07:49.453Z,16.20
2019-04-04T11:10:36.212Z,16.10
2019-04-04T11:13:05.781Z,16.20
2019-04-04T11:15:35.169Z,16.30
2019-04-04T11:18:04.728Z,16.40
2019-04-04T11:20:34.124Z,16.30
2019-04-04T11:23:03.519Z,16.40
2019-04-04T11:25:32.892Z,16.40
2019-04-04T11:28:02.328Z,16.40
2019-04-04T11:30:31.698Z,16.40
2019-04-04T11:33:01.200Z,16.30
2019-04-04T11:35:30.579Z,16.40
2019-04-04T11:37:59.965Z,16.40
2019-04-04T11:40:29.371Z,16.40
2019-04-04T11:42:58.746Z,16.40
2019-04-04T11:45:28.123Z,16.40
2019-04-04T11:47:57.499Z,16.50
2019-04-04T11:50:27.390Z,16.40
2019-04-04T11:52:56.838Z,16.50
2019-04-04T11:55:26.239Z,16.60
2019-04-04T11:57:55.696Z,16.50
2019-04-04T12:00:26.803Z,16.50
2019-04-04T12:02:56.185Z,16.50
2019-04-04T12:05:25.691Z,16.50
2019-04-04T12:07:55.130Z,16.40
2019-04-04T12:10:24.499Z,16.40
2019-04-04T12:12:53.891Z,16.50
2019-04-04T12:15:23.284Z,16.50
2019-04-04T12:17:52.676Z,16.50
2019-04-04T12:20:22.154Z,16.50
2019-04-04T12:22:51.637Z,16.60
2019-04-04T12:25:21.023Z,16.60
2019-04-04T12:27:50.448Z,16.50
2019-04-04T12:30:20.869Z,16.50
2019-04-04T12:32:50.564Z,16.50
2019-04-04T12:35:19.963Z,16.50
2019-04-04T12:37:49.399Z,16.40
2019-04-04T12:40:20.963Z,16.40
2019-04-04T12:42:49.900Z,16.50
2019-04-04T12:45:19.499Z,16.50
2019-04-04T12:47:50.515Z,16.50
2019-04-04T12:50:20.490Z,16.50
2019-04-04T12:52:49.957Z,16.60
2019-04-04T12:55:19.356Z,16.50
2019-04-04T12:58:03.098Z,16.50
2019-04-04T13:00:32.478Z,16.50
2019-04-04T13:03:01.868Z,16.60
2019-04-04T13:05:31.372Z,16.60
2019-04-04T13:08:00.851Z,16.70
2019-04-04T13:10:33.336Z,16.60
2019-04-04T13:13:01.527Z,16.70
2019-04-04T13:15:31.199Z,16.70
2019-04-04T13:18:00.663Z,16.80
2019-04-04T13:20:30.237Z,16.70
2019-04-04T13:22:59.657Z,16.80
2019-04-04T13:25:29.115Z,16.80
2019-04-04T13:27:58.678Z,16.80
2019-04-04T13:30:28.064Z,16.70
2019-04-04T13:32:57.463Z,16.70
2019-04-04T13:35:26.907Z,16.60
2019-04-04T13:37:56.289Z,16.60
2019-04-04T13:40:25.844Z,16.50
2019-04-04T13:42:55.195Z,16.50
2019-04-04T13:45:25.395Z,16.50
2019-04-04T13:47:55.527Z,16.50
2019-04-04T13:50:25.124Z,16.50
2019-04-04T13:52:54.532Z,16.50
2019-04-04T13:55:25.147Z,16.60
2019-04-04T13:57:55.013Z,16.60
2019-04-04T14:00:24.459Z,16.60
2019-04-04T14:02:53.854Z,16.70
2019-04-04T14:05:23.230Z,16.80
2019-04-04T14:07:52.736Z,16.80
2019-04-04T14:10:22.194Z,16.80
2019-04-04T14:12:51.567Z,16.80
2019-04-04T14:15:21.029Z,16.80
2019-04-04T14:17:50.420Z,16.80
2019-04-04T14:20:19.978Z,16.80
2019-04-04T14:22:51.141Z,16.80
2019-04-04T14:25:20.907Z,16.70
2019-04-04T14:27:50.280Z,16.70
2019-04-04T14:30:21.127Z,16.70
2019-04-04T14:32:51.791Z,16.80
2019-04-04T14:35:21.195Z,16.80
2019-04-04T14:37:50.575Z,16.90
2019-04-04T14:40:39.304Z,16.90
2019-04-04T14:43:08.787Z,16.90
2019-04-04T14:45:38.234Z,16.80
2019-04-04T14:48:08.738Z,16.80
2019-04-04T14:50:39.862Z,16.90
2019-04-04T14:53:09.535Z,16.80
2019-04-04T14:55:39.044Z,16.90
2019-04-04T14:58:08.418Z,16.90
2019-04-04T15:00:38.051Z,16.80
2019-04-04T15:03:07.429Z,16.80
2019-04-04T15:05:36.803Z,16.90
2019-04-04T15:08:06.202Z,16.90
2019-04-04T15:10:35.663Z,16.90
2019-04-04T15:13:05.040Z,16.80
2019-04-04T15:15:34.444Z,16.70
2019-04-04T15:18:03.811Z,16.70
2019-04-04T15:20:33.378Z,16.70
2019-04-04T15:23:02.775Z,16.80
2019-04-04T15:25:32.225Z,16.90
2019-04-04T15:28:01.603Z,17.00
2019-04-04T15:30:31.021Z,17.00
2019-04-04T15:33:02.675Z,17.00
2019-04-04T15:35:31.976Z,16.90
2019-04-04T15:38:03.052Z,16.80
2019-04-04T15:40:32.436Z,16.90
2019-04-04T15:43:01.840Z,17.00
2019-04-04T15:45:31.228Z,17.10
2019-04-04T15:48:00.701Z,16.90
2019-04-04T15:50:30.151Z,16.70
2019-04-04T15:52:59.657Z,16.60
2019-04-04T15:55:29.059Z,16.60
2019-04-04T15:57:58.476Z,16.50
2019-04-04T16:00:27.928Z,16.60
2019-04-04T16:02:57.335Z,16.50
2019-04-04T16:05:26.717Z,16.50
2019-04-04T16:07:56.110Z,16.40
2019-04-04T16:10:25.507Z,16.40
2019-04-04T16:12:54.885Z,16.50
2019-04-04T16:15:24.244Z,16.40
2019-04-04T16:17:54.011Z,16.40
2019-04-04T16:20:23.603Z,16.40
2019-04-04T16:22:53.019Z,16.50
2019-04-04T16:25:22.420Z,16.50
2019-04-04T16:27:51.796Z,16.40
2019-04-04T16:30:21.248Z,16.30
2019-04-04T16:32:50.650Z,16.30
2019-04-04T16:35:20.116Z,16.30
2019-04-04T16:37:50.530Z,16.20
2019-04-04T16:40:20.347Z,16.30
2019-04-04T16:42:49.887Z,16.30
2019-04-04T16:45:19.276Z,16.30
2019-04-04T16:47:48.767Z,16.40
2019-04-04T16:50:18.588Z,16.40
2019-04-04T16:52:47.997Z,16.40
2019-04-04T16:55:17.661Z,16.40
2019-04-04T16:57:47.115Z,16.40
2019-04-04T17:00:20.485Z,16.40
2019-04-04T17:02:48.723Z,16.30
2019-04-04T17:05:18.177Z,16.30
2019-04-04T17:07:47.567Z,16.30
2019-04-04T17:10:17.219Z,16.30
2019-04-04T17:12:46.730Z,16.40
2019-04-04T17:15:16.479Z,16.40
2019-04-04T17:17:46.039Z,16.40
2019-04-04T17:20:16.048Z,16.30
2019-04-04T17:22:45.499Z,16.30
2019-04-04T17:25:16.155Z,16.30
2019-04-04T17:27:45.675Z,16.30
2019-04-04T17:30:16.022Z,16.20
2019-04-04T17:32:48.626Z,16.10
2019-04-04T17:35:16.771Z,16.20
2019-04-04T17:37:46.205Z,16.30
2019-04-04T17:40:16.156Z,16.30
2019-04-04T17:42:46.283Z,16.40
2019-04-04T17:45:16.483Z,16.20
2019-04-04T17:47:45.863Z,16.10
2019-04-04T17:50:19.171Z,16.00
2019-04-04T17:53:06.456Z,16.00
2019-04-04T17:55:36.064Z,16.00
2019-04-04T17:58:05.900Z,16.00
2019-04-04T18:00:35.955Z,16.10
2019-04-04T18:03:05.400Z,16.20
2019-04-04T18:05:34.869Z,16.30
2019-04-04T18:08:04.345Z,16.40
2019-04-04T18:10:34.940Z,16.40
2019-04-04T18:13:04.509Z,16.30
2019-04-04T18:15:33.884Z,16.30
2019-04-04T18:18:03.352Z,16.20
2019-04-04T18:20:33.706Z,16.00
2019-04-04T18:23:03.127Z,16.10
2019-04-04T18:25:32.995Z,16.10
2019-04-04T18:28:02.534Z,16.00
2019-04-04T18:30:31.925Z,16.00
2019-04-04T18:33:02.568Z,16.20
2019-04-04T18:35:32.441Z,16.20
2019-04-04T18:38:02.461Z,16.10
2019-04-04T18:40:32.076Z,16.00
2019-04-04T18:43:01.580Z,15.90
2019-04-04T18:45:30.964Z,15.70
2019-04-04T18:48:00.350Z,15.60
2019-04-04T18:50:29.740Z,15.50
2019-04-04T18:52:59.155Z,15.40
2019-04-04T18:55:28.555Z,15.40
2019-04-04T18:57:57.922Z,15.30
2019-04-04T19:00:27.323Z,15.30
2019-04-04T19:02:56.716Z,15.20
2019-04-04T19:05:26.275Z,15.20
2019-04-04T19:07:55.659Z,15.20
2019-04-04T19:10:25.123Z,15.10
2019-04-04T19:13:04.808Z,15.10
2019-04-04T19:15:25.603Z,15.10
2019-04-04T19:17:54.997Z,15.00
2019-04-04T19:20:24.653Z,15.00
2019-04-04T19:22:54.099Z,14.90
2019-04-04T19:25:23.659Z,14.80
2019-04-04T19:27:53.765Z,14.80
2019-04-04T19:30:23.580Z,14.60
2019-04-04T19:32:52.980Z,14.60
2019-04-04T19:35:25.575Z,14.50
2019-04-04T19:38:00.285Z,14.50
2019-04-04T19:40:26.126Z,14.40
2019-04-04T19:42:55.584Z,14.40
2019-04-04T19:45:25.189Z,14.30
2019-04-04T19:47:54.605Z,14.30
2019-04-04T19:50:24.649Z,14.30
2019-04-04T19:52:54.943Z,14.20
2019-04-04T19:55:24.992Z,14.30
2019-04-04T19:57:55.105Z,14.30
2019-04-04T20:00:24.880Z,14.30
2019-04-04T20:02:54.899Z,14.20
2019-04-04T20:05:25.053Z,14.20
2019-04-04T20:07:55.179Z,14.20
2019-04-04T20:10:25.296Z,14.20
2019-04-04T20:12:54.947Z,14.20
2019-04-04T20:15:24.339Z,14.20
2019-04-04T20:17:53.788Z,14.10
2019-04-04T20:20:23.176Z,14.00
2019-04-04T20:22:52.640Z,14.00
2019-04-04T20:25:22.183Z,14.00
2019-04-04T20:27:54.898Z,14.00
2019-04-04T20:30:34.427Z,14.10
2019-04-04T20:33:04.050Z,14.10
2019-04-04T20:35:33.610Z,14.00
2019-04-04T20:38:02.998Z,14.10
2019-04-04T20:40:32.464Z,14.10
2019-04-04T20:43:01.865Z,14.00
2019-04-04T20:45:31.319Z,14.00
2019-04-04T20:48:00.781Z,13.90
2019-04-04T20:50:30.163Z,13.90
2019-04-04T20:52:59.557Z,13.90
2019-04-04T20:55:28.931Z,13.90
2019-04-04T20:57:58.323Z,13.90
2019-04-04T21:00:27.726Z,13.90
2019-04-04T21:02:57.191Z,13.90
2019-04-04T21:05:26.571Z,14.00
2019-04-04T21:07:55.963Z,13.90
2019-04-04T21:10:25.339Z,14.00
2019-04-04T21:12:54.728Z,13.90
2019-04-04T21:15:24.111Z,13.90
2019-04-04T21:17:53.494Z,13.90
2019-04-04T21:20:23.976Z,13.90
2019-04-04T21:22:53.375Z,13.90
2019-04-04T21:25:22.760Z,13.90
2019-04-04T21:27:52.223Z,13.80
2019-04-04T21:30:21.892Z,13.90
2019-04-04T21:32:51.541Z,13.90
2019-04-04T21:35:21.089Z,13.80
2019-04-04T21:37:50.656Z,13.80
2019-04-04T21:40:20.333Z,13.80
2019-04-04T21:42:49.728Z,13.70
2019-04-04T21:45:19.177Z,13.70
2019-04-04T21:47:48.731Z,13.70
2019-04-04T21:50:18.146Z,13.70
2019-04-04T21:52:47.510Z,13.70
2019-04-04T21:55:16.910Z,13.60
2019-04-04T21:57:46.375Z,13.60
2019-04-04T22:00:17.392Z,13.60
2019-04-04T22:02:48.652Z,13.70
2019-04-04T22:05:18.153Z,13.70
2019-04-04T22:07:47.675Z,13.70
2019-04-04T22:10:17.380Z,13.70
2019-04-04T22:12:46.898Z,13.60
2019-04-04T22:15:16.597Z,13.70
2019-04-04T22:17:46.121Z,13.50
2019-04-04T22:20:15.634Z,13.40
2019-04-04T22:22:45.133Z,13.40
2019-04-04T22:25:15.621Z,13.50
2019-04-04T22:27:45.134Z,13.60
2019-04-04T22:30:15.190Z,13.70
2019-04-04T22:32:44.756Z,13.70
2019-04-04T22:35:14.262Z,13.70
2019-04-04T22:37:44.452Z,13.80
2019-04-04T22:40:14.572Z,13.80
2019-04-04T22:42:44.109Z,13.80
2019-04-04T22:45:13.857Z,13.90
2019-04-04T22:47:43.373Z,13.80
2019-04-04T22:50:13.101Z,13.90
2019-04-04T22:52:42.630Z,13.90
2019-04-04T22:55:12.294Z,13.80
2019-04-04T22:57:41.828Z,13.80
2019-04-04T23:00:13.072Z,13.80
2019-04-04T23:02:44.159Z,13.90
2019-04-04T23:05:13.669Z,13.90
2019-04-04T23:07:43.193Z,13.90
2019-04-04T23:10:13.058Z,13.90
2019-04-04T23:12:43.514Z,13.90
2019-04-04T23:15:13.500Z,14.00
2019-04-04T23:17:45.338Z,14.00
2019-04-04T23:20:14.781Z,13.90
2019-04-04T23:22:52.835Z,14.00
2019-04-04T23:25:15.441Z,14.00
2019-04-04T23:27:44.936Z,14.00
2019-04-04T23:30:14.891Z,14.00
2019-04-04T23:32:44.392Z,13.90
2019-04-04T23:35:16.523Z,13.90
2019-04-04T23:37:45.018Z,13.90
2019-04-04T23:40:14.781Z,13.90
2019-04-04T23:42:44.289Z,13.90
2019-04-04T23:45:13.881Z,13.90
2019-04-04T23:47:43.677Z,13.80
2019-04-04T23:50:13.448Z,13.80
2019-04-04T23:52:42.949Z,13.80
2019-04-04T23:55:12.706Z,13.80
2019-04-04T23:57:42.208Z,13.70
